createdAt,value
2022-07-29T00:02:09.596Z,98482.97
2022-07-29T00:04:37.011Z,98469.28
2022-07-29T00:07:05.065Z,98482.97
2022-07-29T00:09:32.660Z,98476.56
2022-07-29T00:12:00.959Z,98477.72
2022-07-29T00:14:28.196Z,98488.00
2022-07-29T00:16:54.994Z,98477.53
2022-07-29T00:19:21.671Z,98477.72
2022-07-29T00:21:49.984Z,98487.53
2022-07-29T00:24:16.855Z,98481.97
2022-07-29T00:26:43.670Z,98491.41
2022-07-29T00:31:56.941Z,98487.00
2022-07-29T00:34:42.186Z,98486.47
2022-07-29T00:37:08.858Z,98480.38
2022-07-29T00:39:35.457Z,98492.56
2022-07-29T00:42:04.998Z,98483.59
2022-07-29T00:44:31.607Z,98487.06
2022-07-29T00:46:58.419Z,98483.47
2022-07-29T00:49:25.096Z,98488.06
2022-07-29T00:51:52.237Z,98478.06
2022-07-29T00:54:19.090Z,98480.97
2022-07-29T00:56:45.969Z,98486.88
2022-07-29T00:59:12.634Z,98495.16
2022-07-29T01:01:39.268Z,98487.75
2022-07-29T01:04:07.488Z,98419.63
2022-07-29T01:06:35.132Z,98487.94
2022-07-29T01:09:02.532Z,98477.91
2022-07-29T01:11:29.111Z,98470.47
2022-07-29T01:13:56.542Z,98472.31
2022-07-29T01:16:34.019Z,98474.97
2022-07-29T01:19:48.739Z,98476.50
2022-07-29T01:22:43.216Z,98478.31
2022-07-29T01:25:47.398Z,98471.69
2022-07-29T01:28:57.482Z,98479.16
2022-07-29T01:31:32.670Z,98472.53
2022-07-29T01:34:07.791Z,98470.28
2022-07-29T01:36:44.378Z,98469.13
2022-07-29T01:39:17.961Z,98475.19
2022-07-29T01:41:57.083Z,98469.97
2022-07-29T01:44:50.171Z,98470.47
2022-07-29T01:47:21.696Z,98467.44
2022-07-29T01:49:52.505Z,98467.97
2022-07-29T01:52:34.961Z,98462.88
2022-07-29T01:55:09.531Z,98472.50
2022-07-29T01:57:38.518Z,98464.09
2022-07-29T02:00:06.433Z,98457.94
2022-07-29T02:02:36.315Z,98464.88
2022-07-29T02:05:04.186Z,98466.44
2022-07-29T02:07:34.388Z,98465.91
2022-07-29T02:10:04.339Z,98468.28
2022-07-29T02:12:33.926Z,98471.50
2022-07-29T02:15:02.391Z,98472.91
2022-07-29T02:17:34.393Z,98454.81
2022-07-29T02:20:06.307Z,98458.91
2022-07-29T02:22:36.296Z,98461.63
2022-07-29T02:25:03.718Z,98452.84
2022-07-29T02:27:31.952Z,98457.41
2022-07-29T02:30:01.492Z,98456.41
2022-07-29T02:32:30.402Z,98447.19
2022-07-29T02:34:58.462Z,98467.34
2022-07-29T02:37:27.218Z,98462.97
2022-07-29T02:39:56.039Z,98453.28
2022-07-29T02:42:25.115Z,98459.84
2022-07-29T02:44:52.496Z,98454.63
2022-07-29T02:47:28.762Z,98465.94
2022-07-29T02:50:03.564Z,98461.97
2022-07-29T02:52:36.069Z,98463.13
2022-07-29T02:55:10.619Z,98453.19
2022-07-29T02:57:54.904Z,98453.63
2022-07-29T03:00:25.192Z,98462.44
2022-07-29T03:02:54.875Z,98453.84
2022-07-29T03:05:22.424Z,98461.94
2022-07-29T03:08:02.073Z,98449.94
2022-07-29T03:10:29.376Z,98456.47
2022-07-29T03:12:57.597Z,98459.88
2022-07-29T03:15:26.589Z,98461.88
2022-07-29T03:17:53.958Z,98466.44
2022-07-29T03:20:20.806Z,98468.66
2022-07-29T03:22:50.577Z,98465.81
2022-07-29T03:25:19.640Z,98462.41
2022-07-29T03:27:47.283Z,98462.56
2022-07-29T03:30:21.791Z,98459.28
2022-07-29T03:32:52.036Z,98465.81
2022-07-29T03:35:22.262Z,98450.72
2022-07-29T03:37:49.826Z,98460.06
2022-07-29T03:40:26.359Z,98460.09
2022-07-29T03:42:55.830Z,98443.03
2022-07-29T03:45:24.078Z,98457.75
2022-07-29T03:48:00.653Z,98465.19
2022-07-29T03:50:31.242Z,98467.88
2022-07-29T03:52:58.495Z,98463.31
2022-07-29T03:55:26.480Z,98461.44
2022-07-29T03:57:54.006Z,98471.59
2022-07-29T04:00:20.661Z,98465.13
2022-07-29T04:02:49.611Z,98466.19
2022-07-29T04:05:17.639Z,98474.69
2022-07-29T04:07:48.649Z,98471.84
2022-07-29T04:10:28.338Z,98470.97
2022-07-29T04:12:59.751Z,98469.28
2022-07-29T04:15:26.843Z,98476.06
2022-07-29T04:17:58.566Z,98474.84
2022-07-29T04:20:25.248Z,98467.31
2022-07-29T04:22:51.808Z,98489.16
2022-07-29T04:25:18.409Z,98472.22
2022-07-29T04:28:05.279Z,98471.38
2022-07-29T04:30:33.161Z,98474.47
2022-07-29T04:33:01.880Z,98480.78
2022-07-29T04:35:29.916Z,98482.00
2022-07-29T04:37:56.496Z,98477.22
2022-07-29T04:40:23.251Z,98469.97
2022-07-29T04:42:49.825Z,98473.91
2022-07-29T04:45:16.488Z,98488.28
2022-07-29T04:47:48.981Z,98480.00
2022-07-29T04:50:15.629Z,98479.66
2022-07-29T04:52:42.249Z,98477.63
2022-07-29T04:55:09.356Z,98447.53
2022-07-29T04:57:36.177Z,98480.72
2022-07-29T05:00:04.301Z,98479.34
2022-07-29T05:02:30.945Z,98483.44
2022-07-29T05:04:57.664Z,98477.66
2022-07-29T05:07:24.539Z,98463.41
2022-07-29T05:09:51.225Z,98474.03
2022-07-29T05:12:17.904Z,98483.16
2022-07-29T05:14:44.479Z,98464.34
2022-07-29T05:17:11.140Z,98473.16
2022-07-29T05:19:39.410Z,98472.75
2022-07-29T05:22:06.828Z,98475.13
2022-07-29T05:24:33.547Z,98476.91
2022-07-29T05:27:00.176Z,98481.78
2022-07-29T05:29:42.907Z,98480.22
2022-07-29T05:32:11.913Z,98484.63
2022-07-29T05:34:38.528Z,98472.94
2022-07-29T05:37:19.211Z,98487.53
2022-07-29T05:39:48.213Z,98482.09
2022-07-29T05:42:16.906Z,98483.69
2022-07-29T05:44:43.559Z,98482.19
2022-07-29T05:47:10.134Z,98482.31
2022-07-29T05:49:36.811Z,98484.22
2022-07-29T05:52:04.131Z,98480.84
2022-07-29T05:54:30.689Z,98475.06
2022-07-29T05:56:57.609Z,98480.59
2022-07-29T05:59:29.876Z,98489.69
2022-07-29T06:01:58.228Z,98492.94
2022-07-29T06:04:25.366Z,98490.78
2022-07-29T06:06:52.067Z,98490.53
2022-07-29T06:09:18.773Z,98486.72
2022-07-29T06:11:45.352Z,98479.09
2022-07-29T06:14:12.233Z,98487.22
2022-07-29T06:16:39.013Z,98494.31
2022-07-29T06:19:05.772Z,98477.59
2022-07-29T06:21:32.341Z,98489.59
2022-07-29T06:23:58.919Z,98482.31
2022-07-29T06:26:30.647Z,98481.84
2022-07-29T06:28:58.191Z,98472.38
2022-07-29T06:31:24.906Z,98466.59
2022-07-29T06:33:51.658Z,98473.66
2022-07-29T06:36:21.716Z,98477.56
2022-07-29T06:38:51.299Z,98478.84
2022-07-29T06:41:19.121Z,98476.84
2022-07-29T06:43:52.223Z,98486.09
2022-07-29T06:46:22.312Z,98495.97
2022-07-29T06:48:50.171Z,98497.00
2022-07-29T06:51:22.283Z,98496.06
2022-07-29T06:53:58.082Z,98496.78
2022-07-29T06:56:26.645Z,98478.63
2022-07-29T06:58:53.286Z,98482.03
2022-07-29T07:01:20.791Z,98489.22
2022-07-29T07:03:48.781Z,98464.34
2022-07-29T07:06:15.653Z,98486.13
2022-07-29T07:08:42.293Z,98484.94
2022-07-29T07:11:09.743Z,98490.69
2022-07-29T07:13:36.648Z,98484.72
2022-07-29T07:16:04.265Z,98490.59
2022-07-29T07:18:31.305Z,98492.94
2022-07-29T07:20:59.300Z,98505.06
2022-07-29T07:23:26.050Z,98498.78
2022-07-29T07:25:52.941Z,98498.88
2022-07-29T07:28:24.620Z,98484.41
2022-07-29T07:30:52.709Z,98491.00
2022-07-29T07:33:19.651Z,98484.34
2022-07-29T07:35:46.476Z,98492.91
2022-07-29T07:38:13.540Z,98483.19
2022-07-29T07:40:40.167Z,98490.25
2022-07-29T07:43:07.011Z,98472.72
2022-07-29T07:45:34.058Z,98476.06
2022-07-29T07:48:00.978Z,98481.84
2022-07-29T07:50:27.630Z,98478.69
2022-07-29T07:52:58.635Z,98477.25
2022-07-29T07:55:26.575Z,98472.50
2022-07-29T07:57:53.643Z,98482.00
2022-07-29T08:00:23.024Z,98478.28
2022-07-29T08:02:51.042Z,98472.38
2022-07-29T08:05:18.278Z,98473.22
2022-07-29T08:07:46.959Z,98478.00
2022-07-29T08:10:16.011Z,98467.13
2022-07-29T08:12:44.517Z,98467.38
2022-07-29T08:15:11.319Z,98468.34
2022-07-29T08:17:37.977Z,98471.63
2022-07-29T08:20:05.285Z,98472.16
2022-07-29T08:22:32.255Z,98467.63
2022-07-29T08:24:58.860Z,98470.31
2022-07-29T08:27:42.451Z,98472.53
2022-07-29T08:30:11.330Z,98456.19
2022-07-29T08:32:53.303Z,98465.50
2022-07-29T08:35:22.856Z,98466.72
2022-07-29T08:37:49.724Z,98459.78
2022-07-29T08:40:16.476Z,98461.25
2022-07-29T08:42:43.212Z,98464.84
2022-07-29T08:45:10.515Z,98468.97
2022-07-29T08:47:40.856Z,98457.47
2022-07-29T08:50:09.217Z,98469.28
2022-07-29T08:52:38.797Z,98462.53
2022-07-29T08:55:07.488Z,98457.75
2022-07-29T08:57:35.279Z,98454.22
2022-07-29T09:00:08.099Z,98451.31
2022-07-29T09:02:46.667Z,98453.78
2022-07-29T09:05:14.452Z,98448.84
2022-07-29T09:07:44.190Z,98449.44
2022-07-29T09:10:11.425Z,98461.09
2022-07-29T09:12:38.466Z,98444.84
2022-07-29T09:15:05.726Z,98444.66
2022-07-29T09:17:47.059Z,98438.47
2022-07-29T09:20:19.215Z,98448.34
2022-07-29T09:22:50.166Z,98443.44
2022-07-29T09:25:34.100Z,98446.50
2022-07-29T09:28:09.052Z,98437.56
2022-07-29T09:30:36.993Z,98439.88
2022-07-29T09:33:04.438Z,98445.03
2022-07-29T09:35:32.086Z,98444.03
2022-07-29T09:37:58.752Z,98435.94
2022-07-29T09:40:28.850Z,98441.28
2022-07-29T09:42:59.319Z,98436.84
2022-07-29T09:45:34.025Z,98421.13
2022-07-29T09:48:13.626Z,98423.31
2022-07-29T09:50:42.119Z,98423.22
2022-07-29T09:53:10.500Z,98425.47
2022-07-29T09:55:53.042Z,98429.53
2022-07-29T09:58:21.577Z,98423.41
2022-07-29T10:00:49.639Z,98419.63
2022-07-29T10:03:17.154Z,98425.41
2022-07-29T10:05:45.219Z,98419.50
2022-07-29T10:08:13.456Z,98418.13
2022-07-29T10:10:43.508Z,98415.94
2022-07-29T10:13:16.418Z,98414.31
2022-07-29T10:15:46.153Z,98419.75
2022-07-29T10:18:18.444Z,98397.34
2022-07-29T10:20:46.128Z,98428.88
2022-07-29T10:23:13.673Z,98414.53
2022-07-29T10:25:45.632Z,98412.56
2022-07-29T10:28:16.261Z,98407.91
2022-07-29T10:30:45.580Z,98409.09
2022-07-29T10:33:26.269Z,98402.13
2022-07-29T10:36:14.306Z,98405.47
2022-07-29T10:38:59.193Z,98399.34
2022-07-29T10:41:43.906Z,98400.03
2022-07-29T10:44:19.086Z,98398.16
2022-07-29T10:46:47.129Z,98396.09
2022-07-29T10:49:25.382Z,98398.13
2022-07-29T10:52:01.057Z,98408.16
2022-07-29T10:54:36.678Z,98400.50
2022-07-29T10:57:53.207Z,98393.16
2022-07-29T11:00:28.668Z,98394.63
2022-07-29T11:02:57.564Z,98393.06
2022-07-29T11:05:32.073Z,98380.50
2022-07-29T11:08:19.958Z,98385.00
2022-07-29T11:10:52.544Z,98383.41
2022-07-29T11:13:51.085Z,98383.59
2022-07-29T11:16:25.002Z,98375.44
2022-07-29T11:19:29.983Z,98372.63
2022-07-29T11:22:05.454Z,98373.91
2022-07-29T11:24:34.959Z,98372.47
2022-07-29T11:27:13.250Z,98372.75
2022-07-29T11:29:49.874Z,98375.47
2022-07-29T11:32:23.373Z,98374.41
2022-07-29T11:35:17.168Z,98361.63
2022-07-29T11:37:56.408Z,98361.91
2022-07-29T11:40:24.691Z,98359.22
2022-07-29T11:42:52.394Z,98351.59
2022-07-29T11:45:43.862Z,98349.59
2022-07-29T11:48:29.266Z,98341.69
2022-07-29T11:50:59.049Z,98348.25
2022-07-29T11:53:25.882Z,98340.13
2022-07-29T11:55:58.179Z,98346.88
2022-07-29T11:58:26.143Z,98335.88
2022-07-29T12:00:53.224Z,98342.09
2022-07-29T12:03:32.824Z,98346.91
2022-07-29T12:06:02.698Z,98348.97
2022-07-29T12:08:29.275Z,98338.69
2022-07-29T12:10:55.963Z,98345.16
2022-07-29T12:13:23.033Z,98335.34
2022-07-29T12:16:03.834Z,98341.06
2022-07-29T12:18:30.546Z,98310.44
2022-07-29T12:21:04.861Z,98329.25
2022-07-29T12:23:35.441Z,98326.38
2022-07-29T12:26:07.668Z,98323.63
2022-07-29T12:28:40.255Z,98320.09
2022-07-29T12:31:08.083Z,98313.97
2022-07-29T12:33:36.049Z,98310.13
2022-07-29T12:36:10.397Z,98299.81
2022-07-29T12:38:41.779Z,98311.78
2022-07-29T12:41:08.451Z,98297.28
2022-07-29T12:43:35.114Z,98304.59
2022-07-29T12:46:16.181Z,98300.75
2022-07-29T12:48:44.527Z,98297.97
2022-07-29T12:51:13.331Z,98297.38
2022-07-29T12:53:40.645Z,98277.78
2022-07-29T12:56:40.682Z,98284.09
2022-07-29T12:59:19.700Z,98287.09
2022-07-29T13:01:51.602Z,98288.88
2022-07-29T13:04:29.464Z,98290.22
2022-07-29T13:07:08.342Z,98302.25
2022-07-29T13:09:39.574Z,98277.59
2022-07-29T13:12:11.459Z,98288.97
2022-07-29T13:14:43.365Z,98286.28
2022-07-29T13:17:14.218Z,98285.34
2022-07-29T13:19:43.646Z,98271.63
2022-07-29T13:22:12.314Z,98276.28
2022-07-29T13:24:50.362Z,98273.44
2022-07-29T13:27:22.577Z,98268.53
2022-07-29T13:29:52.379Z,98260.75
2022-07-29T13:32:20.000Z,98257.44
2022-07-29T13:35:01.636Z,98248.81
2022-07-29T13:37:33.941Z,98256.94
2022-07-29T13:40:01.168Z,98247.59
2022-07-29T13:42:28.060Z,98244.16
2022-07-29T13:44:54.754Z,98248.78
2022-07-29T13:47:22.513Z,98231.25
2022-07-29T13:49:59.585Z,98238.06
2022-07-29T13:52:26.213Z,98245.00
2022-07-29T13:54:52.772Z,98238.41
2022-07-29T13:57:20.267Z,98241.66
2022-07-29T13:59:51.871Z,98234.22
2022-07-29T14:02:20.622Z,98250.09
2022-07-29T14:04:47.432Z,98240.81
2022-07-29T14:07:16.408Z,98234.75
2022-07-29T14:09:43.619Z,98238.13
2022-07-29T14:12:10.725Z,98240.19
2022-07-29T14:14:37.797Z,98225.63
2022-07-29T14:17:07.393Z,98230.81
2022-07-29T14:19:36.685Z,98223.31
2022-07-29T14:22:05.308Z,98228.19
2022-07-29T14:24:32.462Z,98221.00
2022-07-29T14:27:03.528Z,98219.09
2022-07-29T14:29:37.721Z,98217.81
2022-07-29T14:32:10.038Z,98218.31
2022-07-29T14:34:37.678Z,98208.53
2022-07-29T14:37:09.419Z,98200.28
2022-07-29T14:39:43.337Z,98214.84
2022-07-29T14:42:12.897Z,98197.53
2022-07-29T14:44:41.450Z,98185.94
2022-07-29T14:47:08.555Z,98195.63
2022-07-29T14:49:35.941Z,98188.09
2022-07-29T14:52:03.028Z,98195.47
2022-07-29T14:54:29.645Z,98179.84
2022-07-29T14:56:58.268Z,98180.94
2022-07-29T14:59:25.702Z,98173.38
2022-07-29T15:01:52.352Z,98181.41
2022-07-29T15:04:19.023Z,98174.69
2022-07-29T15:06:45.830Z,98172.06
2022-07-29T15:09:12.877Z,98175.06
2022-07-29T15:11:39.527Z,98174.94
2022-07-29T15:14:07.157Z,98168.84
2022-07-29T15:16:37.246Z,98168.97
2022-07-29T15:19:04.720Z,98160.94
2022-07-29T15:21:31.398Z,98165.63
2022-07-29T15:23:58.044Z,98169.66
2022-07-29T15:26:24.664Z,98154.84
2022-07-29T15:28:51.351Z,98156.66
2022-07-29T15:31:19.761Z,98154.03
2022-07-29T15:33:46.469Z,98133.22
2022-07-29T15:36:25.436Z,98151.03
2022-07-29T15:39:00.177Z,98133.72
2022-07-29T15:41:26.805Z,98160.00
2022-07-29T15:43:53.492Z,98161.41
2022-07-29T15:46:39.379Z,98166.16
2022-07-29T15:49:07.139Z,98156.47
2022-07-29T15:51:34.192Z,98149.69
2022-07-29T15:54:04.900Z,98153.41
2022-07-29T15:56:32.139Z,98152.44
2022-07-29T15:58:58.790Z,98147.41
2022-07-29T16:01:25.988Z,98148.19
2022-07-29T16:03:53.072Z,98139.53
2022-07-29T16:06:19.959Z,98158.88
2022-07-29T16:08:46.749Z,98145.53
2022-07-29T16:11:13.414Z,98143.09
2022-07-29T16:13:40.012Z,98145.03
2022-07-29T16:16:06.715Z,98140.94
2022-07-29T16:18:33.336Z,98143.50
2022-07-29T16:20:59.957Z,98146.84
2022-07-29T16:23:26.680Z,98151.34
2022-07-29T16:26:01.269Z,98146.56
2022-07-29T16:28:29.140Z,98137.22
2022-07-29T16:30:55.851Z,98143.81
2022-07-29T16:33:23.516Z,98150.34
2022-07-29T16:35:50.902Z,98143.84
2022-07-29T16:38:17.582Z,98140.88
2022-07-29T16:40:44.284Z,98146.75
2022-07-29T16:43:11.032Z,98141.09
2022-07-29T16:45:45.056Z,98138.19
2022-07-29T16:48:14.234Z,98122.16
2022-07-29T16:50:40.883Z,98130.75
2022-07-29T16:53:10.317Z,98131.81
2022-07-29T16:55:37.019Z,98136.88
2022-07-29T16:58:03.681Z,98133.00
2022-07-29T17:00:30.388Z,98141.91
2022-07-29T17:02:57.072Z,98138.81
2022-07-29T17:05:23.778Z,98139.28
2022-07-29T17:07:50.394Z,98139.97
2022-07-29T17:10:17.177Z,98135.56
2022-07-29T17:12:44.279Z,98145.34
2022-07-29T17:15:12.731Z,98147.88
2022-07-29T17:17:55.217Z,98115.81
2022-07-29T17:20:23.508Z,98142.53
2022-07-29T17:22:50.190Z,98153.84
2022-07-29T17:25:20.925Z,98145.25
2022-07-29T17:27:49.671Z,98153.72
2022-07-29T17:30:16.525Z,98148.47
2022-07-29T17:32:43.142Z,98148.28
2022-07-29T17:35:28.230Z,98145.00
2022-07-29T17:37:55.186Z,98147.59
2022-07-29T17:40:22.185Z,98136.69
2022-07-29T17:42:48.769Z,98142.84
2022-07-29T17:45:15.637Z,98150.47
2022-07-29T17:47:42.264Z,98145.41
2022-07-29T17:50:09.090Z,98144.16
2022-07-29T17:52:35.717Z,98153.47
2022-07-29T17:55:02.676Z,98148.69
2022-07-29T17:57:29.391Z,98156.50
2022-07-29T17:59:55.983Z,98145.41
2022-07-29T18:02:22.687Z,98158.69
2022-07-29T18:04:51.825Z,98166.09
2022-07-29T18:07:18.602Z,98164.00
2022-07-29T18:09:45.268Z,98158.94
2022-07-29T18:12:11.846Z,98162.97
2022-07-29T18:14:38.720Z,98161.50
2022-07-29T18:17:05.364Z,98164.44
2022-07-29T18:19:31.989Z,98173.72
2022-07-29T18:22:04.838Z,98168.19
2022-07-29T18:24:32.518Z,98170.28
2022-07-29T18:26:59.382Z,98163.56
2022-07-29T18:29:28.934Z,98171.97
2022-07-29T18:31:56.040Z,98173.59
2022-07-29T18:34:22.624Z,98170.59
2022-07-29T18:36:49.190Z,98179.34
2022-07-29T18:39:20.748Z,98179.75
2022-07-29T18:41:51.606Z,98181.56
2022-07-29T18:44:21.935Z,98190.53
2022-07-29T18:46:51.056Z,98192.50
2022-07-29T18:49:18.094Z,98188.88
2022-07-29T18:51:44.802Z,98198.63
2022-07-29T18:54:11.375Z,98201.53
2022-07-29T18:56:38.082Z,98157.28
2022-07-29T18:59:05.053Z,98200.22
2022-07-29T19:01:32.953Z,98210.66
2022-07-29T19:04:00.253Z,98215.28
2022-07-29T19:06:26.834Z,98215.19
2022-07-29T19:08:53.746Z,98219.53
2022-07-29T19:11:20.376Z,98206.91
2022-07-29T19:13:47.035Z,98209.56
2022-07-29T19:16:14.500Z,98216.06
2022-07-29T19:18:41.663Z,98189.09
2022-07-29T19:21:08.801Z,98220.00
2022-07-29T19:24:06.025Z,98220.13
2022-07-29T19:26:22.145Z,98221.56
2022-07-29T19:28:49.313Z,98225.63
2022-07-29T19:31:16.001Z,98228.94
2022-07-29T19:33:42.828Z,98226.50
2022-07-29T19:36:09.464Z,98220.03
2022-07-29T19:38:38.184Z,98218.16
2022-07-29T19:41:06.255Z,98217.41
2022-07-29T19:43:50.409Z,98217.34
2022-07-29T19:46:20.444Z,98210.59
2022-07-29T19:48:47.296Z,98210.31
2022-07-29T19:51:14.066Z,98214.28
2022-07-29T19:53:40.707Z,98207.03
2022-07-29T19:56:08.910Z,98202.72
2022-07-29T19:58:36.215Z,98202.63
2022-07-29T20:01:10.294Z,98205.06
2022-07-29T20:03:39.877Z,98203.75
2022-07-29T20:06:07.620Z,98205.34
2022-07-29T20:08:34.697Z,98204.69
2022-07-29T20:11:01.807Z,98204.31
2022-07-29T20:13:28.434Z,98196.38
2022-07-29T20:15:55.120Z,98204.13
2022-07-29T20:18:21.821Z,98205.44
2022-07-29T20:20:49.655Z,98198.03
2022-07-29T20:23:17.115Z,98211.34
2022-07-29T20:25:43.743Z,98208.81
2022-07-29T20:28:10.306Z,98194.03
2022-07-29T20:30:38.575Z,98170.16
2022-07-29T20:33:05.812Z,98209.94
2022-07-29T20:35:32.684Z,98217.97
2022-07-29T20:38:00.419Z,98204.00
2022-07-29T20:40:29.037Z,98224.44
2022-07-29T20:42:56.051Z,98227.03
2022-07-29T20:45:23.898Z,98221.91
2022-07-29T20:47:51.954Z,98232.19
2022-07-29T20:50:21.282Z,98244.38
2022-07-29T20:52:51.644Z,98242.13
2022-07-29T20:55:18.368Z,98246.63
2022-07-29T20:57:44.982Z,98242.25
2022-07-29T21:00:11.999Z,98246.84
2022-07-29T21:02:38.748Z,98236.13
2022-07-29T21:05:06.049Z,98239.34
2022-07-29T21:07:32.723Z,98242.03
2022-07-29T21:09:59.346Z,98240.97
2022-07-29T21:12:25.986Z,98239.34
2022-07-29T21:14:52.614Z,98236.81
2022-07-29T21:17:22.550Z,98237.25
2022-07-29T21:19:52.545Z,98243.75
2022-07-29T21:22:21.848Z,98256.84
2022-07-29T21:24:49.143Z,98258.44
2022-07-29T21:27:34.318Z,98250.66
2022-07-29T21:30:01.105Z,98258.16
2022-07-29T21:32:30.313Z,98252.47
2022-07-29T21:34:57.736Z,98254.81
2022-07-29T21:37:24.505Z,98259.56
2022-07-29T21:39:51.141Z,98227.97
2022-07-29T21:42:17.926Z,98269.97
2022-07-29T21:44:44.571Z,98265.91
2022-07-29T21:47:11.899Z,98266.41
2022-07-29T21:49:38.793Z,98266.47
2022-07-29T21:52:06.111Z,98264.78
2022-07-29T21:54:34.649Z,98260.09
2022-07-29T21:57:01.369Z,98264.13
2022-07-29T21:59:28.003Z,98262.59
2022-07-29T22:01:54.846Z,98262.44
2022-07-29T22:04:21.655Z,98286.50
2022-07-29T22:06:48.369Z,98300.53
2022-07-29T22:09:15.250Z,98298.81
2022-07-29T22:11:42.045Z,98303.03
2022-07-29T22:14:08.645Z,98297.97
2022-07-29T22:16:35.299Z,98291.72
2022-07-29T22:19:03.959Z,98291.69
2022-07-29T22:21:30.971Z,98303.00
2022-07-29T22:23:57.805Z,98294.06
2022-07-29T22:26:24.449Z,98289.66
2022-07-29T22:28:51.020Z,98290.84
2022-07-29T22:31:17.698Z,98301.66
2022-07-29T22:33:44.311Z,98296.09
2022-07-29T22:36:10.932Z,98279.34
2022-07-29T22:38:37.636Z,98279.19
2022-07-29T22:41:04.296Z,98278.03
2022-07-29T22:43:30.880Z,98289.16
2022-07-29T22:45:57.613Z,98282.19
2022-07-29T22:48:24.353Z,98281.19
2022-07-29T22:50:51.025Z,98273.25
2022-07-29T22:53:17.681Z,98270.22
2022-07-29T22:55:45.603Z,98266.31
2022-07-29T22:58:12.509Z,98258.19
2022-07-29T23:00:39.196Z,98268.84
2022-07-29T23:03:05.766Z,98254.66
2022-07-29T23:05:32.794Z,98265.13
2022-07-29T23:07:59.816Z,98256.34
2022-07-29T23:10:26.406Z,98260.72
2022-07-29T23:12:53.045Z,98241.25
2022-07-29T23:15:19.817Z,98257.28
2022-07-29T23:17:46.387Z,98250.88
2022-07-29T23:20:14.913Z,98235.84
2022-07-29T23:22:41.873Z,98241.75
2022-07-29T23:25:08.702Z,98231.59
2022-07-29T23:27:35.487Z,98236.97
2022-07-29T23:30:02.742Z,98227.84
2022-07-29T23:32:29.403Z,98213.69
2022-07-29T23:34:56.047Z,98218.38
2022-07-29T23:37:22.944Z,98221.06
2022-07-29T23:39:49.562Z,98216.00
2022-07-29T23:42:16.129Z,98213.00
2022-07-29T23:44:43.138Z,98216.41
2022-07-29T23:47:09.783Z,98208.31
2022-07-29T23:49:36.334Z,98199.72
2022-07-29T23:52:02.925Z,98209.00
2022-07-29T23:54:29.512Z,98200.44
2022-07-29T23:56:57.835Z,98206.16
2022-07-29T23:59:24.963Z,98205.84
